createdAt,value
2018-10-16T00:00:30.895Z,15.40
2018-10-16T00:01:30.869Z,17.80
2018-10-16T00:03:24.260Z,16.40
2018-10-16T00:04:24.234Z,18.30
2018-10-16T00:06:17.611Z,18.30
2018-10-16T00:07:17.612Z,19.50
2018-10-16T00:09:10.492Z,16.50
2018-10-16T00:10:10.468Z,18.30
2018-10-16T00:12:03.432Z,19.70
2018-10-16T00:13:03.342Z,17.30
2018-10-16T00:14:56.225Z,16.60
2018-10-16T00:15:56.210Z,17.10
2018-10-16T00:17:49.085Z,16.10
2018-10-16T00:18:49.050Z,16.30
2018-10-16T00:20:42.432Z,17.60
2018-10-16T00:21:42.401Z,16.40
2018-10-16T00:23:35.298Z,16.40
2018-10-16T00:24:35.264Z,16.80
2018-10-16T00:26:28.164Z,18.60
2018-10-16T00:27:28.132Z,18.60
2018-10-16T00:29:21.025Z,19.60
2018-10-16T00:30:20.992Z,17.70
2018-10-16T00:32:13.883Z,17.10
2018-10-16T00:33:13.855Z,16.40
2018-10-16T00:35:06.742Z,20.90
2018-10-16T00:36:06.722Z,19.50
2018-10-16T00:38:00.112Z,19.70
2018-10-16T00:39:00.092Z,19.60
2018-10-16T00:40:53.520Z,17.20
2018-10-16T00:41:52.955Z,15.60
2018-10-16T00:43:45.849Z,19.90
2018-10-16T00:44:45.818Z,16.30
2018-10-16T00:46:38.710Z,19.20
2018-10-16T00:47:38.681Z,18.00
2018-10-16T00:49:31.575Z,19.00
2018-10-16T00:50:31.544Z,20.20
2018-10-16T00:52:24.931Z,21.20
2018-10-16T00:53:24.897Z,19.70
2018-10-16T00:55:18.283Z,20.40
2018-10-16T00:56:18.250Z,17.30
2018-10-16T00:58:11.146Z,19.40
2018-10-16T00:59:11.117Z,20.90
2018-10-16T01:01:04.498Z,18.60
2018-10-16T01:02:04.467Z,18.70
2018-10-16T01:03:57.361Z,22.00
2018-10-16T01:04:57.341Z,23.80
2018-10-16T01:06:50.223Z,19.40
2018-10-16T01:07:50.194Z,19.80
2018-10-16T01:09:43.081Z,20.40
2018-10-16T01:10:43.058Z,20.10
2018-10-16T01:12:35.955Z,21.90
2018-10-16T01:13:35.915Z,20.20
2018-10-16T01:15:28.812Z,23.00
2018-10-16T01:16:28.795Z,18.50
2018-10-16T01:18:22.164Z,18.40
2018-10-16T01:19:22.146Z,17.80
2018-10-16T01:21:15.519Z,18.30
2018-10-16T01:22:15.497Z,21.40
2018-10-16T01:24:08.870Z,17.60
2018-10-16T01:25:08.848Z,20.30
2018-10-16T01:27:01.734Z,18.90
2018-10-16T01:28:01.707Z,20.10
2018-10-16T01:29:54.597Z,17.80
2018-10-16T01:30:54.575Z,20.20
2018-10-16T01:32:47.475Z,18.10
2018-10-16T01:33:47.457Z,17.80
2018-10-16T01:35:40.809Z,18.60
2018-10-16T01:36:40.788Z,18.00
2018-10-16T01:38:34.166Z,19.50
2018-10-16T01:39:34.149Z,19.00
2018-10-16T01:41:27.037Z,19.00
2018-10-16T01:42:27.000Z,20.30
2018-10-16T01:44:20.376Z,20.90
2018-10-16T01:45:20.356Z,19.60
2018-10-16T01:47:13.253Z,19.30
2018-10-16T01:48:13.219Z,18.10
2018-10-16T01:50:06.105Z,20.80
2018-10-16T01:51:06.079Z,16.90
2018-10-16T01:52:58.973Z,21.20
2018-10-16T01:53:58.940Z,20.20
2018-10-16T01:55:51.832Z,18.80
2018-10-16T01:56:51.806Z,19.10
2018-10-16T01:58:44.691Z,23.20
2018-10-16T01:59:44.666Z,20.40
2018-10-16T02:01:38.043Z,19.10
2018-10-16T02:02:38.073Z,20.50
2018-10-16T02:04:30.897Z,22.10
2018-10-16T02:05:30.878Z,23.40
2018-10-16T02:07:23.769Z,24.50
2018-10-16T02:08:23.740Z,23.80
2018-10-16T02:10:16.647Z,20.10
2018-10-16T02:11:16.629Z,18.70
2018-10-16T02:13:09.518Z,22.10
2018-10-16T02:14:09.485Z,23.90
2018-10-16T02:16:02.371Z,20.40
2018-10-16T02:17:02.342Z,18.90
2018-10-16T02:18:55.724Z,21.00
2018-10-16T02:19:55.697Z,21.00
2018-10-16T02:21:48.591Z,19.70
2018-10-16T02:22:48.566Z,22.20
2018-10-16T02:24:41.443Z,21.10
2018-10-16T02:25:41.420Z,24.30
2018-10-16T02:27:34.305Z,24.50
2018-10-16T02:28:34.281Z,22.20
2018-10-16T02:30:27.171Z,20.40
2018-10-16T02:31:27.142Z,23.30
2018-10-16T02:33:20.034Z,21.80
2018-10-16T02:34:20.004Z,26.50
2018-10-16T02:36:12.900Z,18.70
2018-10-16T02:37:12.873Z,18.60
2018-10-16T02:39:05.760Z,21.60
2018-10-16T02:40:05.732Z,20.10
2018-10-16T02:41:58.628Z,21.80
2018-10-16T02:42:58.595Z,19.10
2018-10-16T02:44:51.478Z,20.00
2018-10-16T02:45:51.462Z,20.70
2018-10-16T02:47:44.350Z,18.90
2018-10-16T02:48:44.314Z,19.50
2018-10-16T02:50:37.202Z,18.00
2018-10-16T02:51:37.176Z,19.60
2018-10-16T02:53:30.574Z,17.20
2018-10-16T02:54:30.547Z,18.10
2018-10-16T02:56:23.454Z,19.70
2018-10-16T02:57:23.413Z,18.50
2018-10-16T02:59:16.300Z,20.80
2018-10-16T03:00:16.279Z,19.00
2018-10-16T03:02:09.650Z,18.40
2018-10-16T03:03:09.628Z,18.70
2018-10-16T03:05:02.516Z,19.30
2018-10-16T03:06:02.485Z,18.10
2018-10-16T03:07:55.384Z,19.30
2018-10-16T03:08:55.358Z,21.20
2018-10-16T03:10:48.235Z,17.30
2018-10-16T03:11:48.204Z,17.20
2018-10-16T03:13:41.098Z,16.60
2018-10-16T03:14:41.076Z,18.90
2018-10-16T03:16:34.453Z,18.20
2018-10-16T03:17:34.436Z,17.30
2018-10-16T03:19:27.809Z,19.60
2018-10-16T03:20:27.811Z,16.50
2018-10-16T03:22:21.165Z,19.80
2018-10-16T03:23:21.140Z,18.20
2018-10-16T03:25:14.023Z,18.80
2018-10-16T03:26:14.038Z,18.50
2018-10-16T03:28:07.419Z,17.80
2018-10-16T03:29:07.357Z,15.60
2018-10-16T03:31:00.239Z,18.50
2018-10-16T03:32:00.218Z,17.90
2018-10-16T03:33:53.104Z,18.20
2018-10-16T03:34:53.078Z,20.90
2018-10-16T03:36:46.465Z,17.90
2018-10-16T03:37:46.435Z,18.60
2018-10-16T03:39:39.835Z,15.60
2018-10-16T03:40:39.787Z,18.00
2018-10-16T03:42:32.681Z,16.80
2018-10-16T03:43:32.651Z,18.60
2018-10-16T03:45:25.536Z,20.50
2018-10-16T03:46:25.514Z,18.70
2018-10-16T03:48:18.945Z,16.90
2018-10-16T03:49:18.375Z,16.00
2018-10-16T03:51:11.753Z,17.60
2018-10-16T03:52:11.724Z,20.20
2018-10-16T03:54:05.110Z,16.90
2018-10-16T03:55:05.082Z,17.70
2018-10-16T03:56:57.967Z,16.70
2018-10-16T03:57:57.938Z,18.50
2018-10-16T03:59:51.320Z,20.10
2018-10-16T04:00:51.295Z,17.30
2018-10-16T04:02:44.189Z,19.00
2018-10-16T04:03:44.179Z,18.50
2018-10-16T04:05:37.538Z,19.20
2018-10-16T04:06:37.570Z,20.40
2018-10-16T04:08:30.398Z,18.50
2018-10-16T04:09:30.384Z,20.80
2018-10-16T04:11:23.758Z,17.40
2018-10-16T04:12:23.738Z,17.90
2018-10-16T04:14:16.625Z,18.60
2018-10-16T04:15:16.601Z,19.00
2018-10-16T04:17:09.985Z,18.40
2018-10-16T04:18:09.969Z,17.60
2018-10-16T04:20:03.348Z,16.40
2018-10-16T04:21:03.317Z,18.40
2018-10-16T04:22:56.812Z,22.10
2018-10-16T04:23:56.697Z,20.40
2018-10-16T04:25:49.564Z,20.60
2018-10-16T04:26:49.532Z,20.10
2018-10-16T04:28:42.443Z,17.80
2018-10-16T04:29:42.413Z,22.40
2018-10-16T04:31:35.300Z,20.10
2018-10-16T04:32:35.280Z,22.30
2018-10-16T04:34:28.658Z,18.60
2018-10-16T04:35:28.635Z,17.00
2018-10-16T04:37:22.011Z,17.30
2018-10-16T04:38:21.985Z,17.10
2018-10-16T04:40:14.891Z,19.00
2018-10-16T04:41:14.849Z,18.30
2018-10-16T04:43:08.234Z,20.70
2018-10-16T04:44:08.206Z,22.60
2018-10-16T04:46:01.110Z,18.40
2018-10-16T04:47:01.072Z,19.10
2018-10-16T04:48:54.468Z,21.40
2018-10-16T04:49:54.430Z,21.20
2018-10-16T04:51:47.321Z,20.50
2018-10-16T04:52:47.298Z,19.20
2018-10-16T04:54:40.179Z,25.00
2018-10-16T04:55:40.158Z,23.60
2018-10-16T04:57:33.054Z,22.60
2018-10-16T04:58:33.025Z,19.00
2018-10-16T05:00:25.911Z,20.50
2018-10-16T05:01:25.886Z,23.50
2018-10-16T05:03:18.772Z,25.20
2018-10-16T05:04:18.846Z,26.30
2018-10-16T05:06:11.706Z,28.20
2018-10-16T05:07:11.615Z,21.30
2018-10-16T05:09:04.992Z,25.30
2018-10-16T05:10:04.969Z,26.60
2018-10-16T05:11:57.852Z,34.40
2018-10-16T05:12:57.853Z,34.60
2018-10-16T05:14:50.725Z,28.20
2018-10-16T05:15:50.694Z,25.70
2018-10-16T05:17:44.109Z,28.30
2018-10-16T05:18:44.042Z,28.90
2018-10-16T05:20:36.936Z,29.50
2018-10-16T05:21:36.910Z,29.50
2018-10-16T05:23:29.878Z,36.10
2018-10-16T05:24:29.772Z,32.30
2018-10-16T05:26:23.181Z,29.90
2018-10-16T05:27:23.131Z,29.30
2018-10-16T05:29:17.052Z,31.70
2018-10-16T05:30:16.019Z,28.30
2018-10-16T05:32:08.889Z,30.20
2018-10-16T05:33:08.859Z,28.60
2018-10-16T05:35:02.251Z,31.10
2018-10-16T05:36:02.219Z,28.80
2018-10-16T05:37:55.122Z,29.10
2018-10-16T05:38:55.089Z,26.50
2018-10-16T05:40:47.983Z,31.90
2018-10-16T05:41:47.953Z,30.10
2018-10-16T05:43:41.339Z,29.80
2018-10-16T05:44:41.319Z,28.90
2018-10-16T05:46:34.194Z,31.50
2018-10-16T05:47:34.174Z,32.50
2018-10-16T05:49:27.556Z,32.50
2018-10-16T05:50:27.526Z,27.80
2018-10-16T05:52:20.417Z,33.90
2018-10-16T05:53:20.427Z,31.00
2018-10-16T05:55:13.282Z,31.50
2018-10-16T05:56:13.250Z,28.00
2018-10-16T05:58:06.159Z,32.70
2018-10-16T05:59:06.118Z,34.80
2018-10-16T06:00:59.502Z,27.10
2018-10-16T06:01:59.474Z,26.90
2018-10-16T06:03:52.891Z,30.20
2018-10-16T06:04:52.853Z,29.80
2018-10-16T06:06:45.760Z,30.30
2018-10-16T06:07:45.748Z,33.50
2018-10-16T06:09:39.115Z,27.40
2018-10-16T06:10:39.159Z,31.50
2018-10-16T06:12:31.992Z,31.50
2018-10-16T06:13:31.965Z,25.10
2018-10-16T06:15:24.849Z,30.20
2018-10-16T06:16:24.830Z,30.30
2018-10-16T06:18:18.206Z,24.90
2018-10-16T06:19:18.181Z,26.00
2018-10-16T06:21:11.072Z,24.60
2018-10-16T06:22:11.055Z,23.90
2018-10-16T06:24:04.429Z,30.10
2018-10-16T06:25:04.401Z,25.00
2018-10-16T06:26:57.315Z,24.50
2018-10-16T06:27:57.267Z,25.90
2018-10-16T06:29:50.161Z,25.80
2018-10-16T06:30:50.133Z,25.50
2018-10-16T06:32:43.520Z,26.90
2018-10-16T06:33:43.501Z,29.60
2018-10-16T06:35:36.888Z,27.10
2018-10-16T06:36:36.860Z,24.00
2018-10-16T06:38:30.239Z,25.40
2018-10-16T06:39:30.227Z,24.50
2018-10-16T06:41:23.254Z,24.10
2018-10-16T06:42:23.089Z,23.80
2018-10-16T06:44:15.988Z,23.60
2018-10-16T06:45:16.021Z,25.00
2018-10-16T06:47:08.881Z,25.20
2018-10-16T06:48:08.938Z,23.30
2018-10-16T06:50:01.735Z,24.60
2018-10-16T06:51:01.705Z,23.30
2018-10-16T06:52:54.586Z,26.50
2018-10-16T06:53:55.135Z,25.20
2018-10-16T06:55:47.460Z,24.60
2018-10-16T06:56:47.426Z,27.40
2018-10-16T06:58:40.810Z,25.10
2018-10-16T06:59:40.789Z,24.80
2018-10-16T07:01:33.680Z,27.00
2018-10-16T07:02:33.649Z,26.60
2018-10-16T07:04:26.543Z,27.40
2018-10-16T07:05:26.513Z,27.00
2018-10-16T07:07:20.088Z,28.90
2018-10-16T07:08:19.388Z,27.00
2018-10-16T07:10:12.768Z,26.80
2018-10-16T07:11:12.747Z,25.70
2018-10-16T07:13:05.634Z,25.80
2018-10-16T07:14:05.608Z,26.00
2018-10-16T07:15:58.989Z,29.20
2018-10-16T07:16:58.964Z,27.50
2018-10-16T07:18:51.862Z,34.90
2018-10-16T07:19:51.846Z,30.50
2018-10-16T07:21:44.798Z,24.60
2018-10-16T07:22:44.700Z,26.90
2018-10-16T07:24:37.605Z,28.80
2018-10-16T07:25:37.563Z,22.90
2018-10-16T07:27:30.534Z,21.60
2018-10-16T07:28:30.442Z,22.60
2018-10-16T07:30:23.326Z,20.40
2018-10-16T07:31:23.306Z,20.20
2018-10-16T07:33:16.208Z,18.00
2018-10-16T07:34:16.183Z,19.60
2018-10-16T07:36:09.077Z,20.20
2018-10-16T07:37:09.063Z,21.30
2018-10-16T07:39:02.096Z,23.10
2018-10-16T07:40:01.938Z,20.60
2018-10-16T07:41:54.834Z,19.90
2018-10-16T07:42:54.803Z,20.20
2018-10-16T07:44:47.712Z,22.70
2018-10-16T07:45:47.675Z,20.10
2018-10-16T07:47:40.581Z,22.50
2018-10-16T07:48:40.591Z,18.50
2018-10-16T07:50:33.947Z,18.60
2018-10-16T07:51:33.915Z,20.00
2018-10-16T07:53:26.814Z,19.70
2018-10-16T07:54:26.788Z,20.40
2018-10-16T07:56:20.173Z,17.40
2018-10-16T07:57:20.184Z,20.10
2018-10-16T07:59:13.533Z,21.30
2018-10-16T08:00:13.509Z,17.20
2018-10-16T08:02:06.900Z,24.30
2018-10-16T08:03:06.879Z,17.90
2018-10-16T08:05:00.296Z,22.20
2018-10-16T08:06:00.264Z,21.10
2018-10-16T08:07:53.160Z,20.20
2018-10-16T08:08:53.136Z,20.00
2018-10-16T08:10:46.035Z,19.30
2018-10-16T08:11:45.999Z,22.50
2018-10-16T08:13:38.906Z,17.80
2018-10-16T08:14:38.895Z,20.20
2018-10-16T08:16:32.271Z,18.30
2018-10-16T08:17:32.253Z,16.20
2018-10-16T08:19:25.145Z,22.50
2018-10-16T08:20:25.125Z,20.60
2018-10-16T08:22:18.021Z,18.00
2018-10-16T08:23:17.988Z,20.90
2018-10-16T08:25:10.893Z,23.20
2018-10-16T08:26:10.867Z,19.90
2018-10-16T08:28:04.250Z,22.10
2018-10-16T08:29:04.229Z,26.40
2018-10-16T08:30:57.127Z,19.00
2018-10-16T08:31:57.096Z,17.80
2018-10-16T08:33:49.989Z,22.70
2018-10-16T08:34:49.973Z,20.10
2018-10-16T08:36:43.441Z,20.10
2018-10-16T08:37:43.335Z,19.30
2018-10-16T08:39:36.230Z,22.00
2018-10-16T08:40:36.211Z,18.90
2018-10-16T08:42:29.121Z,18.50
2018-10-16T08:43:29.084Z,19.50
2018-10-16T08:45:22.475Z,18.60
2018-10-16T08:46:22.453Z,20.00
2018-10-16T08:48:15.845Z,18.30
2018-10-16T08:49:15.824Z,15.70
2018-10-16T08:51:08.720Z,19.60
2018-10-16T08:52:08.697Z,20.50
2018-10-16T08:54:02.107Z,19.90
2018-10-16T08:55:02.147Z,18.90
2018-10-16T08:56:55.446Z,17.50
2018-10-16T08:57:55.424Z,16.90
2018-10-16T08:59:48.318Z,20.30
2018-10-16T09:00:48.305Z,24.40
2018-10-16T09:02:41.219Z,17.70
2018-10-16T09:03:41.196Z,17.80
2018-10-16T09:05:34.589Z,20.10
2018-10-16T09:06:34.591Z,17.60
2018-10-16T09:08:27.958Z,19.60
2018-10-16T09:09:27.940Z,19.10
2018-10-16T09:11:21.320Z,19.70
2018-10-16T09:12:21.300Z,16.80
2018-10-16T09:14:14.224Z,17.70
2018-10-16T09:15:14.198Z,18.20
2018-10-16T09:17:07.573Z,16.00
2018-10-16T09:18:07.551Z,15.20
2018-10-16T09:20:00.935Z,18.60
2018-10-16T09:21:00.922Z,20.30
2018-10-16T09:22:53.817Z,18.10
2018-10-16T09:23:53.793Z,16.60
2018-10-16T09:25:46.704Z,17.10
2018-10-16T09:26:46.664Z,17.10
2018-10-16T09:28:40.134Z,16.50
2018-10-16T09:29:40.065Z,16.10
2018-10-16T09:31:33.458Z,17.50
2018-10-16T09:32:33.426Z,17.20
2018-10-16T09:34:26.827Z,20.00
2018-10-16T09:35:26.786Z,18.50
2018-10-16T09:37:20.191Z,16.40
2018-10-16T09:38:20.157Z,13.10
2018-10-16T09:40:13.056Z,16.40
2018-10-16T09:41:13.030Z,17.70
2018-10-16T09:43:06.421Z,15.80
2018-10-16T09:44:06.396Z,16.80
2018-10-16T09:45:59.304Z,18.00
2018-10-16T09:46:59.270Z,19.20
2018-10-16T09:48:52.166Z,14.70
2018-10-16T09:49:52.153Z,16.10
2018-10-16T09:51:45.537Z,15.20
2018-10-16T09:52:45.524Z,14.30
2018-10-16T09:54:38.418Z,14.40
2018-10-16T09:55:38.395Z,18.40
2018-10-16T09:57:31.310Z,14.70
2018-10-16T09:58:31.272Z,16.40
2018-10-16T10:00:24.262Z,18.80
2018-10-16T10:01:24.241Z,14.80
2018-10-16T10:03:17.140Z,15.60
2018-10-16T10:04:17.111Z,15.80
2018-10-16T10:06:10.029Z,16.70
2018-10-16T10:07:09.992Z,15.70
2018-10-16T10:09:02.882Z,16.70
2018-10-16T10:10:02.869Z,15.10
2018-10-16T10:11:56.265Z,16.10
2018-10-16T10:12:56.235Z,14.00
2018-10-16T10:14:49.632Z,17.00
2018-10-16T10:15:49.605Z,18.10
2018-10-16T10:17:43.014Z,14.50
2018-10-16T10:18:42.986Z,14.50
2018-10-16T10:20:35.891Z,15.90
2018-10-16T10:21:35.865Z,17.30
2018-10-16T10:23:29.400Z,17.90
2018-10-16T10:24:29.263Z,18.00
2018-10-16T10:26:22.160Z,14.10
2018-10-16T10:27:22.144Z,19.70
2018-10-16T10:29:15.043Z,12.90
2018-10-16T10:30:15.020Z,15.40
2018-10-16T10:32:08.025Z,13.30
2018-10-16T10:33:08.007Z,11.90
2018-10-16T10:35:00.951Z,15.70
2018-10-16T10:36:00.893Z,15.40
2018-10-16T10:37:53.786Z,14.30
2018-10-16T10:38:53.763Z,17.10
2018-10-16T10:40:47.237Z,17.50
2018-10-16T10:41:46.644Z,17.70
2018-10-16T10:43:40.029Z,16.40
2018-10-16T10:44:40.011Z,18.80
2018-10-16T10:46:33.406Z,13.90
2018-10-16T10:47:33.385Z,14.10
2018-10-16T10:49:26.792Z,19.30
2018-10-16T10:50:26.905Z,19.30
2018-10-16T10:52:19.673Z,17.20
2018-10-16T10:53:19.645Z,12.40
2018-10-16T10:55:13.103Z,17.00
2018-10-16T10:56:12.536Z,15.00
2018-10-16T10:58:06.489Z,16.00
2018-10-16T10:59:06.467Z,14.60
2018-10-16T11:00:59.462Z,17.50
2018-10-16T11:01:59.463Z,15.70
2018-10-16T11:03:52.833Z,13.00
2018-10-16T11:04:52.819Z,14.00
2018-10-16T11:06:46.213Z,16.90
2018-10-16T11:07:46.196Z,13.80
2018-10-16T11:09:39.606Z,13.30
2018-10-16T11:10:39.574Z,15.80
2018-10-16T11:12:32.467Z,14.60
2018-10-16T11:13:32.454Z,13.10
2018-10-16T11:15:25.842Z,11.60
2018-10-16T11:16:25.831Z,11.30
2018-10-16T11:18:18.723Z,12.90
2018-10-16T11:19:18.736Z,15.60
2018-10-16T11:21:12.203Z,15.90
2018-10-16T11:22:12.076Z,16.70
2018-10-16T11:24:04.976Z,13.40
2018-10-16T11:25:04.956Z,16.50
2018-10-16T11:26:58.942Z,13.90
2018-10-16T11:27:58.332Z,14.40
2018-10-16T11:29:51.247Z,16.10
2018-10-16T11:30:51.215Z,13.60
2018-10-16T11:32:44.611Z,12.40
2018-10-16T11:33:44.588Z,16.50
2018-10-16T11:35:37.493Z,13.90
2018-10-16T11:36:37.473Z,15.90
2018-10-16T11:38:30.374Z,12.90
2018-10-16T11:39:30.362Z,15.50
2018-10-16T11:41:23.747Z,19.20
2018-10-16T11:42:23.730Z,16.90
2018-10-16T11:44:16.632Z,15.20
2018-10-16T11:45:16.641Z,11.60
2018-10-16T11:47:10.008Z,11.50
2018-10-16T11:48:09.995Z,11.10
2018-10-16T11:50:03.488Z,12.60
2018-10-16T11:51:03.375Z,10.80
2018-10-16T11:52:56.293Z,11.10
2018-10-16T11:53:56.269Z,12.40
2018-10-16T11:55:49.150Z,13.30
2018-10-16T11:56:49.131Z,13.70
2018-10-16T11:58:42.049Z,12.30
2018-10-16T11:59:42.024Z,15.80
2018-10-16T12:01:34.932Z,13.00
2018-10-16T12:02:34.956Z,13.30
2018-10-16T12:04:28.308Z,13.40
2018-10-16T12:05:28.290Z,14.10
2018-10-16T12:07:21.197Z,9.90
2018-10-16T12:08:21.180Z,10.00
2018-10-16T12:10:14.078Z,10.20
2018-10-16T12:11:14.113Z,11.90
2018-10-16T12:13:06.981Z,13.20
2018-10-16T12:14:06.995Z,12.70
2018-10-16T12:15:59.851Z,12.40
2018-10-16T12:16:59.848Z,9.40
2018-10-16T12:18:52.751Z,12.50
2018-10-16T12:19:52.778Z,8.80
2018-10-16T12:21:45.624Z,13.40
2018-10-16T12:22:45.627Z,12.60
2018-10-16T12:24:38.509Z,11.00
2018-10-16T12:25:38.495Z,10.50
2018-10-16T12:27:31.903Z,8.60
2018-10-16T12:28:31.942Z,9.40
2018-10-16T12:30:24.770Z,11.90
2018-10-16T12:31:24.765Z,10.90
2018-10-16T12:33:18.176Z,10.80
2018-10-16T12:34:18.135Z,13.60
2018-10-16T12:36:11.035Z,8.80
2018-10-16T12:37:11.094Z,11.70
2018-10-16T12:39:04.508Z,8.50
2018-10-16T12:40:04.433Z,8.90
2018-10-16T12:41:57.346Z,11.60
2018-10-16T12:42:57.420Z,9.20
2018-10-16T12:44:50.223Z,6.90
2018-10-16T12:45:50.196Z,9.10
2018-10-16T12:47:43.596Z,8.90
2018-10-16T12:48:43.573Z,8.20
2018-10-16T12:50:36.480Z,9.50
2018-10-16T12:51:36.459Z,9.90
2018-10-16T12:53:29.918Z,10.10
2018-10-16T12:54:29.831Z,11.90
2018-10-16T12:56:22.742Z,9.80
2018-10-16T12:57:22.797Z,13.00
2018-10-16T12:59:16.687Z,11.70
2018-10-16T13:00:16.187Z,14.90
2018-10-16T13:02:09.064Z,10.50
2018-10-16T13:03:09.038Z,9.70
2018-10-16T13:05:01.919Z,9.80
2018-10-16T13:06:01.883Z,9.70
2018-10-16T13:07:55.285Z,9.40
2018-10-16T13:08:55.279Z,8.50
2018-10-16T13:10:48.162Z,10.80
2018-10-16T13:11:48.135Z,8.70
2018-10-16T13:13:41.046Z,7.20
2018-10-16T13:14:41.026Z,8.40
2018-10-16T13:16:34.042Z,8.30
2018-10-16T13:17:34.032Z,9.40
2018-10-16T13:19:27.427Z,10.80
2018-10-16T13:20:27.404Z,11.00
2018-10-16T13:22:20.873Z,10.50
2018-10-16T13:23:20.304Z,14.70
2018-10-16T13:25:13.194Z,12.20
2018-10-16T13:26:13.238Z,9.60
2018-10-16T13:28:06.129Z,9.10
2018-10-16T13:29:06.131Z,9.20
2018-10-16T13:30:58.959Z,7.90
2018-10-16T13:31:58.952Z,10.10
2018-10-16T13:33:51.843Z,8.30
2018-10-16T13:34:51.863Z,8.20
2018-10-16T13:36:45.269Z,9.20
2018-10-16T13:37:45.196Z,9.00
2018-10-16T13:39:38.142Z,10.70
2018-10-16T13:40:38.125Z,9.70
2018-10-16T13:42:31.101Z,7.20
2018-10-16T13:43:31.007Z,8.10
2018-10-16T13:45:24.424Z,7.40
2018-10-16T13:46:24.399Z,7.70
2018-10-16T13:48:17.807Z,7.90
2018-10-16T13:49:17.786Z,8.00
2018-10-16T13:51:11.177Z,11.70
2018-10-16T13:52:11.191Z,7.60
2018-10-16T13:54:04.064Z,7.60
2018-10-16T13:55:04.047Z,9.40
2018-10-16T13:56:57.517Z,9.00
2018-10-16T13:57:57.457Z,8.10
2018-10-16T13:59:50.829Z,7.50
2018-10-16T14:00:50.804Z,9.50
2018-10-16T14:02:44.207Z,8.20
2018-10-16T14:03:44.180Z,8.70
2018-10-16T14:05:37.652Z,7.60
2018-10-16T14:06:37.568Z,8.70
2018-10-16T14:08:30.964Z,7.70
2018-10-16T14:09:30.936Z,9.10
2018-10-16T14:11:23.858Z,6.60
2018-10-16T14:12:23.833Z,6.60
2018-10-16T14:14:17.285Z,6.80
2018-10-16T14:15:17.203Z,8.80
2018-10-16T14:17:10.114Z,7.10
2018-10-16T14:18:10.089Z,7.70
2018-10-16T14:20:02.998Z,7.50
2018-10-16T14:21:02.969Z,6.00
2018-10-16T14:22:55.905Z,8.10
2018-10-16T14:23:55.886Z,6.90
2018-10-16T14:25:48.795Z,7.90
2018-10-16T14:26:48.777Z,7.90
2018-10-16T14:28:42.170Z,7.00
2018-10-16T14:29:42.174Z,9.40
2018-10-16T14:31:35.052Z,7.30
2018-10-16T14:32:35.039Z,7.40
2018-10-16T14:34:28.594Z,10.70
2018-10-16T14:35:27.920Z,9.60
2018-10-16T14:37:20.823Z,11.40
2018-10-16T14:38:20.808Z,12.10
2018-10-16T14:40:14.376Z,9.90
2018-10-16T14:41:14.180Z,7.50
2018-10-16T14:43:07.597Z,7.50
2018-10-16T14:44:07.626Z,7.50
2018-10-16T14:46:00.522Z,7.20
2018-10-16T14:47:00.440Z,8.10
2018-10-16T14:48:53.343Z,10.70
2018-10-16T14:49:53.331Z,7.20
2018-10-16T14:51:46.718Z,8.40
2018-10-16T14:52:46.697Z,8.60
2018-10-16T14:54:40.091Z,8.20
2018-10-16T14:55:40.073Z,8.40
2018-10-16T14:57:33.540Z,9.30
2018-10-16T14:58:33.445Z,9.70
2018-10-16T15:00:26.848Z,7.90
2018-10-16T15:01:26.821Z,6.30
2018-10-16T15:03:19.723Z,8.70
2018-10-16T15:04:19.704Z,8.00
2018-10-16T15:06:13.092Z,9.00
2018-10-16T15:07:13.075Z,10.80
2018-10-16T15:09:05.981Z,8.90
2018-10-16T15:10:06.065Z,9.00
2018-10-16T15:11:58.866Z,10.20
2018-10-16T15:12:58.841Z,7.70
2018-10-16T15:14:51.743Z,7.20
2018-10-16T15:15:51.736Z,8.20
2018-10-16T15:17:44.620Z,9.20
2018-10-16T15:18:44.604Z,10.50
2018-10-16T15:20:37.640Z,12.50
2018-10-16T15:21:37.488Z,9.80
2018-10-16T15:23:30.954Z,12.80
2018-10-16T15:24:30.859Z,10.30
2018-10-16T15:26:23.758Z,8.30
2018-10-16T15:27:23.746Z,8.30
2018-10-16T15:29:16.640Z,12.50
2018-10-16T15:30:16.617Z,10.50
2018-10-16T15:32:10.065Z,10.20
2018-10-16T15:33:09.993Z,11.10
2018-10-16T15:35:03.385Z,11.60
2018-10-16T15:36:03.398Z,12.90
2018-10-16T15:37:56.313Z,8.60
2018-10-16T15:38:56.242Z,11.60
2018-10-16T15:40:49.149Z,10.10
2018-10-16T15:41:49.128Z,11.30
2018-10-16T15:43:42.074Z,12.20
2018-10-16T15:44:42.009Z,12.50
2018-10-16T15:46:34.916Z,11.10
2018-10-16T15:47:34.885Z,10.40
2018-10-16T15:49:27.782Z,8.80
2018-10-16T15:50:27.765Z,8.60
2018-10-16T15:52:20.663Z,13.20
2018-10-16T15:53:20.636Z,12.30
2018-10-16T15:55:13.531Z,13.20
2018-10-16T15:56:13.518Z,11.10
2018-10-16T15:58:06.528Z,9.10
2018-10-16T15:59:06.396Z,9.80
2018-10-16T16:00:59.297Z,10.10
2018-10-16T16:01:59.292Z,11.40
2018-10-16T16:03:52.695Z,13.70
2018-10-16T16:04:52.657Z,11.10
2018-10-16T16:06:45.661Z,9.20
2018-10-16T16:07:45.638Z,8.90
2018-10-16T16:09:38.561Z,11.20
2018-10-16T16:10:38.529Z,12.70
2018-10-16T16:12:31.457Z,9.90
2018-10-16T16:13:31.400Z,8.70
2018-10-16T16:15:24.795Z,12.70
2018-10-16T16:16:24.775Z,12.80
2018-10-16T16:18:18.271Z,11.40
2018-10-16T16:19:18.158Z,12.40
2018-10-16T16:21:11.560Z,12.10
2018-10-16T16:22:11.576Z,15.40
2018-10-16T16:24:04.429Z,13.10
2018-10-16T16:25:04.396Z,11.90
2018-10-16T16:26:57.805Z,12.30
2018-10-16T16:27:57.832Z,12.50
2018-10-16T16:29:51.212Z,13.20
2018-10-16T16:30:51.148Z,16.00
2018-10-16T16:32:44.056Z,13.90
2018-10-16T16:33:44.032Z,13.20
2018-10-16T16:35:36.938Z,14.30
2018-10-16T16:36:36.962Z,15.20
2018-10-16T16:38:29.808Z,13.80
2018-10-16T16:39:29.797Z,13.60
2018-10-16T16:41:23.229Z,17.70
2018-10-16T16:42:23.166Z,26.50
2018-10-16T16:44:16.686Z,21.50
2018-10-16T16:45:16.532Z,21.30
2018-10-16T16:47:09.548Z,17.60
2018-10-16T16:48:09.402Z,19.40
2018-10-16T16:50:02.852Z,13.20
2018-10-16T16:51:02.782Z,17.20
2018-10-16T16:52:56.187Z,15.20
2018-10-16T16:53:56.135Z,12.10
2018-10-16T16:55:49.554Z,14.10
2018-10-16T16:56:49.517Z,13.10
2018-10-16T16:58:42.420Z,10.90
2018-10-16T16:59:42.398Z,11.80
2018-10-16T17:01:35.810Z,15.40
2018-10-16T17:02:35.777Z,11.10
2018-10-16T17:04:28.686Z,12.60
2018-10-16T17:05:28.653Z,16.30
2018-10-16T17:07:21.556Z,11.70
2018-10-16T17:08:21.521Z,12.70
2018-10-16T17:10:14.497Z,14.20
2018-10-16T17:11:14.395Z,13.40
2018-10-16T17:13:07.787Z,14.70
2018-10-16T17:14:07.776Z,12.90
2018-10-16T17:16:00.704Z,12.10
2018-10-16T17:17:00.643Z,10.30
2018-10-16T17:18:53.537Z,13.00
2018-10-16T17:19:53.531Z,14.90
2018-10-16T17:21:46.906Z,13.50
2018-10-16T17:22:46.880Z,15.80
2018-10-16T17:24:39.861Z,9.90
2018-10-16T17:25:40.218Z,11.60
2018-10-16T17:27:33.158Z,14.00
2018-10-16T17:28:33.139Z,11.00
2018-10-16T17:30:26.035Z,12.00
2018-10-16T17:31:26.011Z,12.10
2018-10-16T17:33:18.911Z,18.40
2018-10-16T17:34:18.889Z,15.70
2018-10-16T17:36:11.795Z,12.80
2018-10-16T17:37:11.762Z,12.80
2018-10-16T17:39:04.668Z,14.20
2018-10-16T17:40:04.634Z,12.90
2018-10-16T17:41:57.532Z,15.90
2018-10-16T17:42:57.511Z,12.40
2018-10-16T17:44:50.921Z,14.80
2018-10-16T17:45:50.871Z,13.20
2018-10-16T17:47:44.339Z,13.70
2018-10-16T17:48:44.237Z,12.30
2018-10-16T17:50:37.631Z,12.10
2018-10-16T17:51:37.610Z,12.60
2018-10-16T17:53:31.043Z,12.60
2018-10-16T17:54:30.985Z,12.20
2018-10-16T17:56:24.381Z,11.00
2018-10-16T17:57:24.364Z,12.50
2018-10-16T17:59:17.259Z,13.70
2018-10-16T18:00:17.229Z,13.40
2018-10-16T18:02:10.628Z,13.70
2018-10-16T18:03:10.649Z,13.30
2018-10-16T18:05:03.510Z,11.50
2018-10-16T18:06:03.474Z,12.30
2018-10-16T18:07:56.371Z,16.00
2018-10-16T18:08:56.405Z,15.50
2018-10-16T18:10:49.745Z,17.30
2018-10-16T18:11:49.774Z,15.40
2018-10-16T18:13:43.112Z,16.80
2018-10-16T18:14:43.105Z,14.50
2018-10-16T18:16:37.537Z,17.50
2018-10-16T18:17:37.511Z,13.40
2018-10-16T18:19:30.929Z,16.20
2018-10-16T18:20:30.889Z,15.70
2018-10-16T18:22:23.784Z,18.10
2018-10-16T18:23:23.764Z,20.20
2018-10-16T18:25:16.649Z,14.40
2018-10-16T18:26:16.629Z,16.40
2018-10-16T18:28:10.578Z,14.90
2018-10-16T18:29:10.555Z,14.90
2018-10-16T18:31:03.458Z,13.60
2018-10-16T18:32:03.433Z,15.80
2018-10-16T18:33:56.331Z,14.30
2018-10-16T18:34:56.305Z,14.00
2018-10-16T18:36:49.205Z,15.80
2018-10-16T18:37:49.178Z,18.30
2018-10-16T18:39:42.252Z,14.70